Time;durP1;ratioP1;P1;durP2;ratioP2;P2;SDS_P1;SDS_P2;PMS_P1;PMS_P2;Temp;Humidity;BMP_temperature;BMP_pressure;BME280_temperature;BME280_humidity;BME280_pressure;Samples;Min_cycle;Max_cycle;Signal;HPM_P1;HPM_P2
2022/05/07 00:00:32;;;;;;;0.00;0.00;;;;;;;;;;5069485;28;20091;-62
2022/05/07 00:02:57;;;;;;;0.00;0.00;;;;;;;;;;5069650;28;20567;-62
2022/05/07 00:05:22;;;;;;;0.00;0.00;;;;;;;;;;5069799;28;20020;-62
2022/05/07 00:07:48;;;;;;;0.00;0.00;;;;;;;;;;5069553;28;20026;-62
2022/05/07 00:10:14;;;;;;;0.00;0.00;;;;;;;;;;5068619;28;20032;-63
2022/05/07 00:12:39;;;;;;;0.00;0.00;;;;;;;;;;5070737;28;20070;-63
2022/05/07 00:15:05;;;;;;;0.00;0.00;;;;;;;;;;5070302;28;20438;-62
2022/05/07 00:20:14;;;;;;;0.00;0.00;;;;;;;;;;5070928;28;20035;-63
2022/05/07 00:22:39;;;;;;;0.00;0.00;;;;;;;;;;5070884;28;20021;-65
2022/05/07 00:25:05;;;;;;;0.00;0.00;;;;;;;;;;5070203;28;20016;-63
2022/05/07 00:27:30;;;;;;;0.00;0.00;;;;;;;;;;5067884;28;20023;-63
2022/05/07 00:29:55;;;;;;;0.00;0.00;;;;;;;;;;5069019;28;20035;-63
2022/05/07 00:32:20;;;;;;;0.00;0.00;;;;;;;;;;5050763;28;20023;-63
2022/05/07 00:34:45;;;;;;;0.00;0.00;;;;;;;;;;5068874;28;20052;-64
2022/05/07 00:37:11;;;;;;;0.03;0.03;;;;;;;;;;5068036;28;20038;-64
2022/05/07 00:39:36;;;;;;;0.00;0.00;;;;;;;;;;5068163;28;20032;-63
2022/05/07 00:42:02;;;;;;;0.00;0.00;;;;;;;;;;5068799;28;20024;-62
2022/05/07 00:44:28;;;;;;;0.00;0.00;;;;;;;;;;5068877;28;20024;-62
2022/05/07 00:46:53;;;;;;;0.00;0.00;;;;;;;;;;5069535;28;20028;-62
2022/05/07 00:49:19;;;;;;;0.00;0.00;;;;;;;;;;5069321;28;20070;-64
2022/05/07 00:51:45;;;;;;;0.20;0.20;;;;;;;;;;5071761;28;20009;-64
2022/05/07 00:54:10;;;;;;;0.00;0.00;;;;;;;;;;5072303;28;20488;-64
2022/05/07 00:56:39;;;;;;;0.00;0.00;;;;;;;;;;5071828;28;20027;-64
2022/05/07 00:59:05;;;;;;;0.00;0.00;;;;;;;;;;5053833;28;20032;-64
2022/05/07 01:01:30;;;;;;;0.00;0.00;;;;;;;;;;5071629;28;20025;-63
2022/05/07 01:03:55;;;;;;;0.00;0.00;;;;;;;;;;5072053;28;20048;-63
2022/05/07 01:06:21;;;;;;;0.00;0.00;;;;;;;;;;5072224;28;20036;-63
2022/05/07 01:08:47;;;;;;;0.00;0.00;;;;;;;;;;5072754;28;20035;-64
2022/05/07 01:11:12;;;;;;;0.00;0.00;;;;;;;;;;5055256;28;20104;-64
2022/05/07 01:13:38;;;;;;;0.00;0.00;;;;;;;;;;5073070;28;20102;-64
2022/05/07 01:16:03;;;;;;;0.00;0.00;;;;;;;;;;5073264;28;20012;-64
2022/05/07 01:18:29;;;;;;;0.00;0.00;;;;;;;;;;5073034;28;20021;-64
2022/05/07 01:20:55;;;;;;;0.52;0.52;;;;;;;;;;5072673;28;20120;-64
2022/05/07 01:23:20;;;;;;;0.25;0.25;;;;;;;;;;5072878;28;20477;-63
2022/05/07 01:25:46;;;;;;;0.22;0.22;;;;;;;;;;5072849;28;20032;-63
2022/05/07 01:28:11;;;;;;;0.00;0.00;;;;;;;;;;5072235;28;20035;-62
2022/05/07 01:30:36;;;;;;;0.00;0.00;;;;;;;;;;5054080;28;20334;-62
2022/05/07 01:33:01;;;;;;;0.00;0.00;;;;;;;;;;5071147;28;20401;-63
2022/05/07 01:35:26;;;;;;;0.00;0.00;;;;;;;;;;5069821;28;20127;-66
2022/05/07 01:37:52;;;;;;;0.00;0.00;;;;;;;;;;5069467;28;20036;-61
2022/05/07 01:40:17;;;;;;;0.00;0.00;;;;;;;;;;5073630;28;20056;-63
2022/05/07 01:42:42;;;;;;;0.00;0.00;;;;;;;;;;5075260;28;20021;-63
2022/05/07 01:45:08;;;;;;;0.00;0.00;;;;;;;;;;5076353;28;20024;-63
2022/05/07 01:50:22;;;;;;;0.00;0.00;;;;;;;;;;5072471;28;20027;-59
2022/05/07 01:52:48;;;;;;;0.00;0.00;;;;;;;;;;5073706;28;20044;-62
2022/05/07 01:55:13;;;;;;;0.00;0.00;;;;;;;;;;5074333;28;20025;-61
2022/05/07 01:57:38;;;;;;;0.00;0.00;;;;;;;;;;5070522;28;20043;-62
2022/05/07 02:00:04;;;;;;;0.00;0.00;;;;;;;;;;5071841;28;20035;-64
2022/05/07 02:02:29;;;;;;;5.72;5.53;;;;;;;;;;5071277;28;20047;-65
2022/05/07 02:04:54;;;;;;;0.00;0.00;;;;;;;;;;5070757;28;20059;-63
2022/05/07 02:07:19;;;;;;;0.00;0.00;;;;;;;;;;5071372;28;20071;-63
2022/05/07 02:09:44;;;;;;;0.00;0.00;;;;;;;;;;5071009;28;20075;-63
2022/05/07 02:12:10;;;;;;;0.20;0.20;;;;;;;;;;5071812;28;20098;-65
2022/05/07 02:14:35;;;;;;;0.00;0.00;;;;;;;;;;5071235;28;20051;-65
2022/05/07 02:17:00;;;;;;;0.00;0.00;;;;;;;;;;5071725;28;20017;-66
2022/05/07 02:19:25;;;;;;;0.00;0.00;;;;;;;;;;5073597;28;20032;-66
2022/05/07 02:21:51;;;;;;;0.52;0.52;;;;;;;;;;5073110;28;20039;-65
2022/05/07 02:24:16;;;;;;;0.00;0.00;;;;;;;;;;5072116;28;20027;-64
2022/05/07 02:26:42;;;;;;;0.00;0.00;;;;;;;;;;5069949;28;20082;-64
2022/05/07 02:29:09;;;;;;;0.00;0.00;;;;;;;;;;5071127;28;20365;-63
2022/05/07 02:31:34;;;;;;;0.00;0.00;;;;;;;;;;5069899;28;20457;-62
2022/05/07 02:33:59;;;;;;;0.00;0.00;;;;;;;;;;5072217;28;20066;-62
2022/05/07 02:36:25;;;;;;;0.00;0.00;;;;;;;;;;5075560;28;20032;-63
2022/05/07 02:38:50;;;;;;;0.00;0.00;;;;;;;;;;5075796;28;20028;-63
2022/05/07 02:43:58;;;;;;;0.00;0.00;;;;;;;;;;5075453;28;20034;-63
2022/05/07 02:46:24;;;;;;;0.00;0.00;;;;;;;;;;5074802;28;20024;-62
2022/05/07 02:48:49;;;;;;;0.00;0.00;;;;;;;;;;5073406;28;20044;-65
2022/05/07 02:51:14;;;;;;;0.00;0.00;;;;;;;;;;5072762;28;20457;-65
2022/05/07 02:53:41;;;;;;;0.00;0.00;;;;;;;;;;5074721;28;20119;-68
2022/05/07 02:56:07;;;;;;;0.00;0.00;;;;;;;;;;5074449;28;20100;-68
2022/05/07 02:58:32;;;;;;;0.00;0.00;;;;;;;;;;5073759;28;20075;-68
2022/05/07 03:00:58;;;;;;;0.00;0.00;;;;;;;;;;5071973;28;20029;-67
2022/05/07 03:03:23;;;;;;;0.00;0.00;;;;;;;;;;5070834;28;20020;-67
2022/05/07 03:05:48;;;;;;;0.00;0.00;;;;;;;;;;5070507;28;20035;-67
2022/05/07 03:08:13;;;;;;;0.00;0.00;;;;;;;;;;5070731;28;20024;-67
2022/05/07 03:10:39;;;;;;;0.00;0.00;;;;;;;;;;5069449;28;20172;-67
2022/05/07 03:13:04;;;;;;;0.00;0.00;;;;;;;;;;5070525;28;20100;-67
2022/05/07 03:15:29;;;;;;;0.00;0.00;;;;;;;;;;5069030;28;20026;-67
2022/05/07 03:17:54;;;;;;;0.00;0.00;;;;;;;;;;5069956;28;20400;-64
2022/05/07 03:20:20;;;;;;;0.00;0.00;;;;;;;;;;5070714;28;20020;-64
2022/05/07 03:22:45;;;;;;;0.43;0.43;;;;;;;;;;5070032;28;20017;-66
2022/05/07 03:25:10;;;;;;;0.00;0.00;;;;;;;;;;5073586;28;20048;-66
2022/05/07 03:27:36;;;;;;;0.00;0.00;;;;;;;;;;5052857;28;20385;-64
2022/05/07 03:30:01;;;;;;;0.00;0.00;;;;;;;;;;5073616;28;20063;-66
2022/05/07 03:32:26;;;;;;;0.00;0.00;;;;;;;;;;5073519;28;20056;-64
2022/05/07 03:34:51;;;;;;;0.00;0.00;;;;;;;;;;5071657;28;20041;-63
2022/05/07 03:37:16;;;;;;;0.00;0.00;;;;;;;;;;5072057;28;20028;-63
2022/05/07 03:39:42;;;;;;;0.00;0.00;;;;;;;;;;5070082;28;20472;-67
2022/05/07 03:42:07;;;;;;;0.00;0.00;;;;;;;;;;5069894;28;20031;-67
2022/05/07 03:44:33;;;;;;;0.00;0.00;;;;;;;;;;5070020;28;20039;-64
2022/05/07 03:46:58;;;;;;;0.00;0.00;;;;;;;;;;5068373;28;20032;-65
2022/05/07 03:49:23;;;;;;;0.00;0.00;;;;;;;;;;5069493;28;20024;-62
2022/05/07 03:54:32;;;;;;;0.00;0.00;;;;;;;;;;5069147;28;20036;-62
2022/05/07 03:56:57;;;;;;;0.00;0.00;;;;;;;;;;5069822;28;20453;-62
2022/05/07 03:59:22;;;;;;;0.00;0.00;;;;;;;;;;5069259;28;20023;-61
2022/05/07 04:01:48;;;;;;;0.00;0.00;;;;;;;;;;5069039;28;20347;-64
2022/05/07 04:04:13;;;;;;;0.00;0.00;;;;;;;;;;5069807;28;20025;-62
2022/05/07 04:06:38;;;;;;;0.00;0.00;;;;;;;;;;5070432;28;20107;-63
2022/05/07 04:09:03;;;;;;;0.00;0.00;;;;;;;;;;5069390;28;20046;-63
2022/05/07 04:11:29;;;;;;;0.00;0.00;;;;;;;;;;5068495;28;20449;-63
2022/05/07 04:13:54;;;;;;;0.00;0.00;;;;;;;;;;5069764;28;20020;-62
2022/05/07 04:16:19;;;;;;;0.00;0.00;;;;;;;;;;5070385;28;20017;-62
2022/05/07 04:18:44;;;;;;;0.00;0.00;;;;;;;;;;5069528;28;20028;-62
2022/05/07 04:21:09;;;;;;;0.00;0.00;;;;;;;;;;5069972;28;20028;-62
2022/05/07 04:23:35;;;;;;;0.00;0.00;;;;;;;;;;5069278;28;20040;-62
2022/05/07 04:26:00;;;;;;;0.00;0.00;;;;;;;;;;5069505;28;20059;-63
2022/05/07 04:28:25;;;;;;;0.00;0.00;;;;;;;;;;5068374;28;20051;-63
2022/05/07 04:30:50;;;;;;;0.15;0.15;;;;;;;;;;5068977;28;20115;-62
2022/05/07 04:33:16;;;;;;;0.00;0.00;;;;;;;;;;5069897;28;20025;-62
2022/05/07 04:35:41;;;;;;;0.00;0.00;;;;;;;;;;5069623;28;20047;-62
2022/05/07 04:38:06;;;;;;;0.10;0.10;;;;;;;;;;5069251;28;20035;-64
2022/05/07 04:40:31;;;;;;;0.00;0.00;;;;;;;;;;5068395;28;20028;-68
2022/05/07 04:42:56;;;;;;;0.00;0.00;;;;;;;;;;5067670;28;20097;-67
2022/05/07 04:45:22;;;;;;;0.00;0.00;;;;;;;;;;5069033;28;20020;-65
2022/05/07 04:47:47;;;;;;;0.00;0.00;;;;;;;;;;5068058;28;20024;-65
2022/05/07 04:50:13;;;;;;;0.00;0.00;;;;;;;;;;5068457;28;20174;-65
2022/05/07 04:52:38;;;;;;;0.00;0.00;;;;;;;;;;5067202;28;20413;-65
2022/05/07 04:55:04;;;;;;;0.00;0.00;;;;;;;;;;5068447;28;20113;-66
2022/05/07 04:57:30;;;;;;;3.38;3.25;;;;;;;;;;5067127;28;20483;-67
2022/05/07 04:59:55;;;;;;;0.00;0.00;;;;;;;;;;5068592;28;20082;-67
2022/05/07 05:02:21;;;;;;;0.05;0.05;;;;;;;;;;5068042;28;20943;-65
2022/05/07 05:04:46;;;;;;;0.00;0.00;;;;;;;;;;5067812;28;20131;-65
2022/05/07 05:07:13;;;;;;;0.00;0.00;;;;;;;;;;5068769;28;20024;-66
2022/05/07 05:09:38;;;;;;;0.00;0.00;;;;;;;;;;5057522;28;20106;-68
2022/05/07 05:12:04;;;;;;;0.00;0.00;;;;;;;;;;5063275;28;20071;-68
2022/05/07 05:17:13;;;;;;;0.00;0.00;;;;;;;;;;5070777;28;20047;-68
2022/05/07 05:19:38;;;;;;;0.00;0.00;;;;;;;;;;5078215;28;20051;-68
2022/05/07 05:22:03;;;;;;;0.00;0.00;;;;;;;;;;5077582;28;20103;-69
2022/05/07 05:24:35;;;;;;;0.00;0.00;;;;;;;;;;5068845;28;20028;-70
2022/05/07 05:27:00;;;;;;;0.00;0.00;;;;;;;;;;5054498;28;20012;-69
2022/05/07 05:29:25;;;;;;;0.00;0.00;;;;;;;;;;5056154;28;20079;-69
2022/05/07 05:31:51;;;;;;;0.00;0.00;;;;;;;;;;5072550;28;20115;-66
2022/05/07 05:34:17;;;;;;;0.00;0.00;;;;;;;;;;5070468;28;20120;-68
2022/05/07 05:36:42;;;;;;;0.10;0.10;;;;;;;;;;5072246;28;20020;-69
2022/05/07 05:39:08;;;;;;;0.00;0.00;;;;;;;;;;5073102;28;20020;-69
2022/05/07 05:41:35;;;;;;;0.00;0.00;;;;;;;;;;5069944;28;20029;-70
2022/05/07 05:44:00;;;;;;;0.00;0.00;;;;;;;;;;5073174;28;20059;-65
2022/05/07 05:46:27;;;;;;;0.85;0.43;;;;;;;;;;5075126;28;20410;-65
2022/05/07 05:48:52;;;;;;;0.00;0.00;;;;;;;;;;5073875;28;20020;-64
2022/05/07 05:51:18;;;;;;;0.00;0.00;;;;;;;;;;5077187;28;20017;-62
2022/05/07 05:53:43;;;;;;;0.00;0.00;;;;;;;;;;5070735;28;20040;-61
2022/05/07 05:56:08;;;;;;;0.00;0.00;;;;;;;;;;5077799;28;20038;-61
2022/05/07 05:58:33;;;;;;;0.00;0.00;;;;;;;;;;5078062;28;20055;-61
2022/05/07 06:01:00;;;;;;;0.00;0.00;;;;;;;;;;5077980;28;20139;-61
2022/05/07 06:03:26;;;;;;;0.00;0.00;;;;;;;;;;5074626;28;20107;-62
2022/05/07 06:05:51;;;;;;;0.10;0.10;;;;;;;;;;5074226;28;20442;-63
2022/05/07 06:08:17;;;;;;;0.00;0.00;;;;;;;;;;5076682;28;20127;-62
2022/05/07 06:10:42;;;;;;;0.00;0.00;;;;;;;;;;5055702;28;20029;-65
2022/05/07 06:13:07;;;;;;;0.00;0.00;;;;;;;;;;5077406;28;20473;-60
2022/05/07 06:15:32;;;;;;;0.10;0.10;;;;;;;;;;5076188;28;20050;-60
2022/05/07 06:17:58;;;;;;;0.00;0.00;;;;;;;;;;5074078;28;20043;-60
2022/05/07 06:20:23;;;;;;;0.00;0.00;;;;;;;;;;5076353;28;20302;-60
2022/05/07 06:22:48;;;;;;;0.17;0.17;;;;;;;;;;5076297;28;20377;-60
2022/05/07 06:28:01;;;;;;;0.03;0.03;;;;;;;;;;5070152;28;20281;-61
2022/05/07 06:30:26;;;;;;;0.00;0.00;;;;;;;;;;5071343;28;20021;-58
2022/05/07 06:32:52;;;;;;;0.00;0.00;;;;;;;;;;5072765;28;20025;-57
2022/05/07 06:35:17;;;;;;;0.98;0.95;;;;;;;;;;5068731;28;20049;-58
2022/05/07 06:37:47;;;;;;;0.20;0.20;;;;;;;;;;5070139;28;20056;-59
2022/05/07 06:40:13;;;;;;;0.00;0.00;;;;;;;;;;5051586;28;20052;-60
2022/05/07 06:42:39;;;;;;;0.00;0.00;;;;;;;;;;5073420;28;20051;-60
2022/05/07 06:45:05;;;;;;;0.30;0.30;;;;;;;;;;5072591;28;20407;-60
2022/05/07 06:47:31;;;;;;;0.00;0.00;;;;;;;;;;5071959;28;20104;-60
2022/05/07 06:49:56;;;;;;;0.00;0.00;;;;;;;;;;5070771;28;20477;-60
2022/05/07 06:52:21;;;;;;;0.00;0.00;;;;;;;;;;5073144;28;20159;-62
2022/05/07 06:54:47;;;;;;;0.00;0.00;;;;;;;;;;5070814;28;20531;-61
2022/05/07 06:57:12;;;;;;;0.00;0.00;;;;;;;;;;5071519;28;20277;-61
2022/05/07 06:59:37;;;;;;;0.00;0.00;;;;;;;;;;5068693;28;20024;-61
2022/05/07 07:02:03;;;;;;;4.22;1.85;;;;;;;;;;5073066;28;20471;-62
2022/05/07 07:04:28;;;;;;;0.00;0.00;;;;;;;;;;5072117;28;20067;-61
2022/05/07 07:06:54;;;;;;;0.00;0.00;;;;;;;;;;5071002;28;20466;-61
2022/05/07 07:09:19;;;;;;;0.00;0.00;;;;;;;;;;5073812;28;20071;-61
2022/05/07 07:11:45;;;;;;;0.00;0.00;;;;;;;;;;5073653;28;20013;-62
2022/05/07 07:14:10;;;;;;;0.00;0.00;;;;;;;;;;5051961;28;20386;-62
2022/05/07 07:16:36;;;;;;;0.00;0.00;;;;;;;;;;5049674;28;20076;-64
2022/05/07 07:19:01;;;;;;;0.00;0.00;;;;;;;;;;5070132;28;20063;-62
2022/05/07 07:21:26;;;;;;;0.50;0.50;;;;;;;;;;5069314;28;20021;-63
2022/05/07 07:23:51;;;;;;;0.00;0.00;;;;;;;;;;5065096;28;20052;-64
2022/05/07 07:26:17;;;;;;;0.20;0.20;;;;;;;;;;5066884;28;20365;-64
2022/05/07 07:28:42;;;;;;;0.10;0.10;;;;;;;;;;5068648;28;20283;-66
2022/05/07 07:31:10;;;;;;;0.08;0.08;;;;;;;;;;5064339;28;20017;-64
2022/05/07 07:33:37;;;;;;;0.00;0.00;;;;;;;;;;5063447;28;20016;-61
2022/05/07 07:36:02;;;;;;;0.00;0.00;;;;;;;;;;5060504;28;20064;-60
2022/05/07 07:38:29;;;;;;;0.00;0.00;;;;;;;;;;5063005;28;20448;-66
2022/05/07 07:40:54;;;;;;;0.15;0.15;;;;;;;;;;5065179;28;20029;-66
2022/05/07 07:43:20;;;;;;;0.00;0.00;;;;;;;;;;5067707;28;20504;-66
2022/05/07 07:48:30;;;;;;;0.00;0.00;;;;;;;;;;5066562;28;20811;-68
2022/05/07 07:50:55;;;;;;;0.00;0.00;;;;;;;;;;5064893;28;20025;-67
2022/05/07 07:53:22;;;;;;;1.65;1.55;;;;;;;;;;5063632;28;20012;-67
2022/05/07 07:55:47;;;;;;;0.00;0.00;;;;;;;;;;5066594;28;21114;-68
2022/05/07 07:58:13;;;;;;;1.88;1.85;;;;;;;;;;5064135;28;20107;-67
2022/05/07 08:00:38;;;;;;;0.00;0.00;;;;;;;;;;5067311;28;20089;-62
2022/05/07 08:03:05;;;;;;;0.00;0.00;;;;;;;;;;5068269;28;20028;-65
2022/05/07 08:05:31;;;;;;;0.00;0.00;;;;;;;;;;5062120;28;20449;-67
2022/05/07 08:13:25;;;;;;;0.10;0.10;;;;;;;;;;5068742;28;20054;-65
2022/05/07 08:15:50;;;;;;;0.15;0.15;;;;;;;;;;5061079;28;20025;-67
2022/05/07 08:18:15;;;;;;;0.10;0.10;;;;;;;;;;5067542;28;20021;-67
2022/05/07 08:20:41;;;;;;;0.00;0.00;;;;;;;;;;5065879;28;20346;-65
2022/05/07 08:23:07;;;;;;;0.00;0.00;;;;;;;;;;5067293;28;20424;-65
2022/05/07 08:25:32;;;;;;;0.55;0.45;;;;;;;;;;5061813;28;20472;-65
2022/05/07 08:27:57;;;;;;;0.00;0.00;;;;;;;;;;5054295;28;20123;-66
2022/05/07 08:30:23;;;;;;;6.07;0.95;;;;;;;;;;5068148;28;20008;-65
2022/05/07 08:32:48;;;;;;;0.00;0.00;;;;;;;;;;5065788;28;20040;-65
2022/05/07 08:35:14;;;;;;;0.00;0.00;;;;;;;;;;5067542;28;20734;-65
2022/05/07 08:37:39;;;;;;;0.00;0.00;;;;;;;;;;5066152;28;20466;-64
2022/05/07 08:40:04;;;;;;;0.00;0.00;;;;;;;;;;5067814;28;20293;-64
2022/05/07 08:42:30;;;;;;;0.95;0.95;;;;;;;;;;5058176;28;20267;-66
2022/05/07 08:44:56;;;;;;;0.00;0.00;;;;;;;;;;5067008;28;20546;-65
2022/05/07 08:47:23;;;;;;;0.50;0.50;;;;;;;;;;5066716;28;20103;-65
2022/05/07 08:49:48;;;;;;;0.00;0.00;;;;;;;;;;5066598;28;20021;-64
2022/05/07 08:52:14;;;;;;;0.10;0.10;;;;;;;;;;5068152;28;20020;-64
2022/05/07 08:54:39;;;;;;;0.70;0.70;;;;;;;;;;5067026;28;20027;-64
2022/05/07 08:57:05;;;;;;;0.00;0.00;;;;;;;;;;5067812;28;20750;-65
2022/05/07 08:59:30;;;;;;;0.00;0.00;;;;;;;;;;5068094;28;20255;-65
2022/05/07 09:01:56;;;;;;;0.00;0.00;;;;;;;;;;5068085;28;20371;-66
2022/05/07 09:04:21;;;;;;;0.00;0.00;;;;;;;;;;5068652;28;20020;-65
2022/05/07 09:06:54;;;;;;;0.00;0.00;;;;;;;;;;5067765;28;20678;-65
2022/05/07 09:09:19;;;;;;;0.00;0.00;;;;;;;;;;5067039;28;20329;-65
2022/05/07 09:11:44;;;;;;;0.00;0.00;;;;;;;;;;5066789;28;20016;-65
2022/05/07 09:14:10;;;;;;;0.00;0.00;;;;;;;;;;5067921;28;20024;-65
2022/05/07 09:16:43;;;;;;;0.10;0.10;;;;;;;;;;5066940;28;20012;-65
2022/05/07 09:19:19;;;;;;;0.00;0.00;;;;;;;;;;5066536;28;20029;-65
2022/05/07 09:21:44;;;;;;;0.00;0.00;;;;;;;;;;5064583;28;20031;-65
2022/05/07 09:24:09;;;;;;;0.00;0.00;;;;;;;;;;5067392;28;20376;-64
2022/05/07 09:26:35;;;;;;;0.00;0.00;;;;;;;;;;5067094;28;20416;-64
2022/05/07 09:29:00;;;;;;;0.00;0.00;;;;;;;;;;5067634;28;20020;-64
2022/05/07 09:31:26;;;;;;;0.00;0.00;;;;;;;;;;5067995;28;20021;-64
2022/05/07 09:33:51;;;;;;;0.00;0.00;;;;;;;;;;5067072;28;20013;-64
2022/05/07 09:36:16;;;;;;;0.10;0.08;;;;;;;;;;5068019;28;20044;-64
2022/05/07 09:38:43;;;;;;;0.25;0.25;;;;;;;;;;5065899;28;20115;-64
2022/05/07 09:41:17;;;;;;;0.00;0.00;;;;;;;;;;5067561;28;20067;-63
2022/05/07 09:43:44;;;;;;;0.20;0.20;;;;;;;;;;5067163;28;20752;-63
2022/05/07 09:46:09;;;;;;;0.00;0.00;;;;;;;;;;5066278;28;20836;-63
2022/05/07 09:48:36;;;;;;;0.00;0.00;;;;;;;;;;5067358;28;20078;-63
2022/05/07 09:51:02;;;;;;;0.00;0.00;;;;;;;;;;5066524;28;20031;-63
2022/05/07 09:58:55;;;;;;;0.57;0.43;;;;;;;;;;5066690;28;20447;-63
2022/05/07 10:01:24;;;;;;;0.00;0.00;;;;;;;;;;5070526;28;20016;-62
2022/05/07 10:04:06;;;;;;;0.00;0.00;;;;;;;;;;5071740;28;20035;-62
2022/05/07 10:06:43;;;;;;;0.00;0.00;;;;;;;;;;5071326;28;20020;-62
2022/05/07 10:09:11;;;;;;;0.00;0.00;;;;;;;;;;5070979;28;20039;-63
2022/05/07 10:11:37;;;;;;;0.00;0.00;;;;;;;;;;5070323;28;20058;-63
2022/05/07 10:14:02;;;;;;;0.20;0.20;;;;;;;;;;5068867;28;21386;-63
2022/05/07 10:16:30;;;;;;;0.10;0.10;;;;;;;;;;5069888;28;20028;-63
2022/05/07 10:18:56;;;;;;;0.00;0.00;;;;;;;;;;5069614;28;20058;-65
2022/05/07 10:21:22;;;;;;;0.00;0.00;;;;;;;;;;5071019;28;20040;-65
2022/05/07 10:23:56;;;;;;;0.00;0.00;;;;;;;;;;5070416;28;20029;-64
2022/05/07 10:26:43;;;;;;;0.00;0.00;;;;;;;;;;5070108;28;20047;-62
2022/05/07 10:29:25;;;;;;;0.00;0.00;;;;;;;;;;5053059;28;20086;-62
2022/05/07 10:32:00;;;;;;;0.00;0.00;;;;;;;;;;5070464;28;20020;-61
2022/05/07 10:34:26;;;;;;;0.00;0.00;;;;;;;;;;5070800;28;20041;-62
2022/05/07 10:37:00;;;;;;;0.00;0.00;;;;;;;;;;5064481;28;20027;-63
2022/05/07 10:39:25;;;;;;;0.00;0.00;;;;;;;;;;5068798;28;20048;-62
2022/05/07 10:41:51;;;;;;;0.00;0.00;;;;;;;;;;5068139;28;20551;-62
2022/05/07 10:44:30;;;;;;;0.20;0.20;;;;;;;;;;5070073;28;20048;-61
2022/05/07 10:46:55;;;;;;;;;;;;;;;;;;5069741;28;20856;-61
2022/05/07 10:49:20;;;;;;;0.00;0.00;;;;;;;;;;5070914;28;19966;-61
2022/05/07 10:51:51;;;;;;;0.00;0.00;;;;;;;;;;5070294;28;20020;-61
2022/05/07 10:54:18;;;;;;;0.10;0.10;;;;;;;;;;5070454;28;20415;-61
2022/05/07 10:56:51;;;;;;;0.43;0.43;;;;;;;;;;5071453;28;20021;-58
2022/05/07 10:59:17;;;;;;;0.00;0.00;;;;;;;;;;5074742;28;20020;-57
2022/05/07 11:01:42;;;;;;;0.00;0.00;;;;;;;;;;5073726;28;20032;-58
2022/05/07 11:04:09;;;;;;;0.00;0.00;;;;;;;;;;5074015;28;20084;-57
2022/05/07 11:06:45;;;;;;;0.00;0.00;;;;;;;;;;5074236;28;20051;-58
2022/05/07 11:09:14;;;;;;;0.00;0.00;;;;;;;;;;5074071;28;20464;-57
2022/05/07 11:11:47;;;;;;;0.00;0.00;;;;;;;;;;5071647;28;20021;-57
2022/05/07 11:14:24;;;;;;;0.00;0.00;;;;;;;;;;5072728;28;20469;-58
2022/05/07 11:16:50;;;;;;;0.10;0.10;;;;;;;;;;5072287;28;20089;-56
2022/05/07 11:19:45;;;;;;;2.15;2.05;;;;;;;;;;5072972;28;20044;-57
2022/05/07 11:22:13;;;;;;;0.40;0.40;;;;;;;;;;5058435;28;20029;-57
2022/05/07 11:24:39;;;;;;;0.00;0.00;;;;;;;;;;5063493;28;20032;-56
2022/05/07 11:27:11;;;;;;;0.03;0.03;;;;;;;;;;5070797;28;20051;-55
2022/05/07 11:29:36;;;;;;;0.30;0.30;;;;;;;;;;5067483;28;20420;-56
2022/05/07 11:32:04;;;;;;;0.30;0.30;;;;;;;;;;5068316;28;20016;-51
2022/05/07 11:34:33;;;;;;;0.00;0.00;;;;;;;;;;5070670;28;20037;-53
2022/05/07 11:37:13;;;;;;;0.00;0.00;;;;;;;;;;5064855;28;20023;-55
2022/05/07 11:39:51;;;;;;;0.00;0.00;;;;;;;;;;5069937;28;20036;-56
2022/05/07 11:42:39;;;;;;;0.60;0.60;;;;;;;;;;5073081;28;20457;-57
2022/05/07 11:45:26;;;;;;;1.17;1.00;;;;;;;;;;5062833;28;20032;-57
2022/05/07 11:47:54;;;;;;;0.30;0.30;;;;;;;;;;5073011;28;20052;-57
2022/05/07 11:50:29;;;;;;;0.03;0.03;;;;;;;;;;5073375;28;20012;-56
2022/05/07 11:52:55;;;;;;;1.65;0.98;;;;;;;;;;5073367;28;20017;-57
2022/05/07 11:55:24;;;;;;;0.00;0.00;;;;;;;;;;5073893;28;20035;-57
2022/05/07 11:57:49;;;;;;;0.00;0.00;;;;;;;;;;5073926;28;20112;-57
2022/05/07 12:00:25;;;;;;;0.45;0.45;;;;;;;;;;5073945;28;20064;-56
2022/05/07 12:02:57;;;;;;;0.00;0.00;;;;;;;;;;5073899;28;20028;-55
2022/05/07 12:05:23;;;;;;;0.00;0.00;;;;;;;;;;5070021;28;20020;-55
2022/05/07 12:07:49;;;;;;;0.10;0.10;;;;;;;;;;5073026;28;20032;-58
2022/05/07 12:10:18;;;;;;;0.00;0.00;;;;;;;;;;5071463;28;20025;-58
2022/05/07 12:12:47;;;;;;;0.00;0.00;;;;;;;;;;5070978;28;20016;-58
2022/05/07 12:15:12;;;;;;;0.00;0.00;;;;;;;;;;5073367;28;20074;-58
2022/05/07 12:17:53;;;;;;;0.00;0.00;;;;;;;;;;5072550;28;20465;-58
2022/05/07 12:20:19;;;;;;;0.00;0.00;;;;;;;;;;5073402;28;20111;-53
2022/05/07 12:30:56;;;;;;;0.75;0.28;;;;;;;;;;5067678;28;20059;-60
2022/05/07 12:33:21;;;;;;;0.00;0.00;;;;;;;;;;5069292;28;20470;-59
2022/05/07 12:35:46;;;;;;;0.00;0.00;;;;;;;;;;5068679;28;20068;-59
2022/05/07 12:38:11;;;;;;;0.50;0.50;;;;;;;;;;5073027;28;20417;-60
2022/05/07 12:40:37;;;;;;;0.57;0.57;;;;;;;;;;5073346;28;20269;-59
2022/05/07 12:43:02;;;;;;;3.42;0.17;;;;;;;;;;5073364;28;20029;-60
2022/05/07 12:45:27;;;;;;;0.65;0.65;;;;;;;;;;5069926;28;20038;-59
2022/05/07 12:47:53;;;;;;;0.00;0.00;;;;;;;;;;5070905;28;20024;-59
2022/05/07 12:50:18;;;;;;;0.05;0.05;;;;;;;;;;5073966;28;20049;-59
2022/05/07 12:52:43;;;;;;;0.20;0.20;;;;;;;;;;5072114;28;20091;-59
2022/05/07 12:55:09;;;;;;;0.00;0.00;;;;;;;;;;5072591;28;20025;-60
2022/05/07 12:57:34;;;;;;;0.57;0.57;;;;;;;;;;5069196;28;20024;-60
2022/05/07 12:59:59;;;;;;;0.38;0.05;;;;;;;;;;5070569;28;20024;-60
2022/05/07 13:02:25;;;;;;;0.00;0.00;;;;;;;;;;5071097;28;20361;-60
2022/05/07 13:04:50;;;;;;;0.25;0.25;;;;;;;;;;5071359;28;20051;-57
2022/05/07 13:07:15;;;;;;;0.08;0.08;;;;;;;;;;5073193;28;20060;-57
2022/05/07 13:09:40;;;;;;;0.03;0.03;;;;;;;;;;5070222;28;20372;-58
2022/05/07 13:12:06;;;;;;;0.00;0.00;;;;;;;;;;5073048;28;20516;-58
2022/05/07 13:14:32;;;;;;;0.45;0.45;;;;;;;;;;5072627;28;20457;-58
2022/05/07 13:16:58;;;;;;;0.88;0.20;;;;;;;;;;5070996;28;20059;-58
2022/05/07 13:19:23;;;;;;;0.00;0.00;;;;;;;;;;5067531;28;20044;-57
2022/05/07 13:21:49;;;;;;;0.00;0.00;;;;;;;;;;5071902;28;20406;-55
2022/05/07 13:24:14;;;;;;;0.00;0.00;;;;;;;;;;5071513;28;20409;-57
2022/05/07 13:26:40;;;;;;;0.00;0.00;;;;;;;;;;5072270;28;20082;-58
2022/05/07 13:29:05;;;;;;;0.00;0.00;;;;;;;;;;5071919;28;20473;-58
2022/05/07 13:31:31;;;;;;;0.17;0.17;;;;;;;;;;5072115;28;20023;-58
2022/05/07 13:33:56;;;;;;;0.00;0.00;;;;;;;;;;5070871;28;20085;-59
2022/05/07 13:36:21;;;;;;;0.15;0.15;;;;;;;;;;5074375;28;20497;-58
2022/05/07 13:38:47;;;;;;;0.03;0.03;;;;;;;;;;5071454;28;20466;-57
2022/05/07 13:41:16;;;;;;;0.00;0.00;;;;;;;;;;5076856;28;20473;-58
2022/05/07 13:43:41;;;;;;;0.13;0.13;;;;;;;;;;5075843;28;20484;-59
2022/05/07 13:46:07;;;;;;;0.55;0.30;;;;;;;;;;5076177;28;20024;-58
2022/05/07 13:48:32;;;;;;;9.85;6.45;;;;;;;;;;5075916;28;20691;-60
2022/05/07 13:50:57;;;;;;;0.00;0.00;;;;;;;;;;5075251;28;20017;-59
2022/05/07 13:53:23;;;;;;;1.98;1.95;;;;;;;;;;5076585;28;20100;-58
2022/05/07 13:55:48;;;;;;;0.00;0.00;;;;;;;;;;5075273;28;20028;-59
2022/05/07 13:58:13;;;;;;;1.95;1.67;;;;;;;;;;5072125;28;20020;-56
2022/05/07 14:00:40;;;;;;;0.00;0.00;;;;;;;;;;5052728;28;20013;-59
2022/05/07 14:03:05;;;;;;;0.00;0.00;;;;;;;;;;5068397;28;20012;-58
2022/05/07 14:05:30;;;;;;;0.10;0.10;;;;;;;;;;5075587;28;20050;-58
2022/05/07 14:07:55;;;;;;;0.00;0.00;;;;;;;;;;5084271;28;20028;-58
2022/05/07 14:10:21;;;;;;;0.00;0.00;;;;;;;;;;5075099;28;20023;-59
2022/05/07 14:12:46;;;;;;;0.30;0.10;;;;;;;;;;5075901;28;20044;-58
2022/05/07 14:15:12;;;;;;;0.00;0.00;;;;;;;;;;5068475;28;20075;-59
2022/05/07 14:17:38;;;;;;;0.00;0.00;;;;;;;;;;5069664;28;20021;-59
2022/05/07 14:20:04;;;;;;;0.00;0.00;;;;;;;;;;5075846;28;20024;-58
2022/05/07 14:22:31;;;;;;;0.73;0.73;;;;;;;;;;5075497;28;20502;-60
2022/05/07 14:24:56;;;;;;;0.13;0.13;;;;;;;;;;5071534;28;20025;-58
2022/05/07 14:27:22;;;;;;;0.05;0.05;;;;;;;;;;5071382;28;20487;-55
2022/05/07 14:29:48;;;;;;;0.00;0.00;;;;;;;;;;5075114;28;20042;-58
2022/05/07 14:32:13;;;;;;;0.00;0.00;;;;;;;;;;5074448;28;20411;-57
2022/05/07 14:34:39;;;;;;;0.03;0.03;;;;;;;;;;5066599;28;20116;-57
2022/05/07 14:37:04;;;;;;;0.00;0.00;;;;;;;;;;5055374;28;20111;-54
2022/05/07 14:39:29;;;;;;;0.40;0.28;;;;;;;;;;5063078;28;20036;-52
2022/05/07 14:41:55;;;;;;;0.00;0.00;;;;;;;;;;5036800;28;20033;-56
2022/05/07 14:44:21;;;;;;;0.00;0.00;;;;;;;;;;5052244;28;20028;-56
2022/05/07 14:46:46;;;;;;;0.45;0.45;;;;;;;;;;5050829;28;20021;-53
2022/05/07 14:49:11;;;;;;;2.83;1.10;;;;;;;;;;5052721;28;20075;-56
2022/05/07 14:51:39;;;;;;;1.75;1.48;;;;;;;;;;5053161;28;20450;-54
2022/05/07 14:54:05;;;;;;;0.00;0.00;;;;;;;;;;5059195;28;20020;-54
2022/05/07 14:56:34;;;;;;;0.00;0.00;;;;;;;;;;5062563;28;20039;-53
2022/05/07 14:58:59;;;;;;;0.00;0.00;;;;;;;;;;5029247;28;20370;-53
2022/05/07 15:01:25;;;;;;;0.22;0.22;;;;;;;;;;5057954;28;20021;-55
2022/05/07 15:03:51;;;;;;;0.10;0.10;;;;;;;;;;5054780;28;20039;-51
2022/05/07 15:06:16;;;;;;;1.67;1.10;;;;;;;;;;5045418;28;20104;-54
2022/05/07 15:11:26;;;;;;;0.30;0.22;;;;;;;;;;5053661;28;20062;-55
2022/05/07 15:13:54;;;;;;;0.00;0.00;;;;;;;;;;5052805;28;20421;-52
2022/05/07 15:16:20;;;;;;;0.00;0.00;;;;;;;;;;5038214;28;20075;-53
2022/05/07 15:18:46;;;;;;;0.05;0.05;;;;;;;;;;5054137;28;20448;-54